KRTN/RTN METAR and TAF weather

Enter ICAO airport designator
Station Type Date Time Source
KRTN METAR 2022/12/04 04:53 UTC NOAA

KRTN 040453Z AUTO 00000KT 10SM CLR 00/M10 A3025 RMK AO2 SLP254 T00001100


Station Type Date Time Source
KRTN Decoded METAR 2022/12/04 04:53 UTC NOAA

Raton, Raton Municipal \ Crews Field Airport, NM, United States (KRTN) 36-44-31N 104-39-28W 1939M
Dec 03, 2022 - 11:53 PM EST / 2022.12.04 0453 UTC
Wind: Calm:0
Visibility: 10 mile(s):0
Sky conditions: clear
Temperature: 32.0 F (0.0 C)
Dew Point: 14.0 F (-10.0 C)
Relative Humidity: 46%
Pressure (altimeter): 30.25 in. Hg (1024 hPa)
ob: KRTN 040453Z AUTO 00000KT 10SM CLR 00/M10 A3025 RMK AO2 SLP254 T00001100
cycle: 5

Station Type Date Time Source
KRTN TAF UTC NOAA

Error!

Example: see airport list